sensor_id;sensor_type;location;lat;lon;timestamp;temperature;humidity
76299;DHT22;65236;42.332;23.550;2022-12-18T00:00:44;8.84;86.24
76299;DHT22;65236;42.332;23.550;2022-12-18T00:03:12;8.86;86.58
76299;DHT22;65236;42.332;23.550;2022-12-18T00:05:48;8.79;86.94
76299;DHT22;65236;42.332;23.550;2022-12-18T00:08:15;8.63;87.01
76299;DHT22;65236;42.332;23.550;2022-12-18T00:10:40;8.62;87.00
76299;DHT22;65236;42.332;23.550;2022-12-18T00:13:06;8.55;86.81
76299;DHT22;65236;42.332;23.550;2022-12-18T00:15:34;8.46;86.88
76299;DHT22;65236;42.332;23.550;2022-12-18T00:17:59;8.49;87.01
76299;DHT22;65236;42.332;23.550;2022-12-18T00:20:25;8.56;86.88
76299;DHT22;65236;42.332;23.550;2022-12-18T00:22:52;8.55;86.71
76299;DHT22;65236;42.332;23.550;2022-12-18T00:25:17;8.59;86.63
76299;DHT22;65236;42.332;23.550;2022-12-18T00:27:43;8.70;86.44
76299;DHT22;65236;42.332;23.550;2022-12-18T00:30:09;8.70;85.98
76299;DHT22;65236;42.332;23.550;2022-12-18T00:32:34;8.76;85.75
76299;DHT22;65236;42.332;23.550;2022-12-18T00:35:00;8.73;85.57
76299;DHT22;65236;42.332;23.550;2022-12-18T00:37:25;8.70;84.91
76299;DHT22;65236;42.332;23.550;2022-12-18T00:39:50;8.73;84.84
76299;DHT22;65236;42.332;23.550;2022-12-18T00:42:16;8.83;84.93
76299;DHT22;65236;42.332;23.550;2022-12-18T00:45:00;8.79;84.81
76299;DHT22;65236;42.332;23.550;2022-12-18T00:47:25;8.81;84.96
76299;DHT22;65236;42.332;23.550;2022-12-18T00:49:51;8.83;84.99
76299;DHT22;65236;42.332;23.550;2022-12-18T00:52:16;8.79;84.53
76299;DHT22;65236;42.332;23.550;2022-12-18T00:54:42;8.76;84.26
76299;DHT22;65236;42.332;23.550;2022-12-18T00:57:07;8.68;84.03
76299;DHT22;65236;42.332;23.550;2022-12-18T00:59:32;8.66;84.23
76299;DHT22;65236;42.332;23.550;2022-12-18T01:01:58;8.58;84.09
76299;DHT22;65236;42.332;23.550;2022-12-18T01:04:23;8.49;83.83
76299;DHT22;65236;42.332;23.550;2022-12-18T01:06:49;8.38;84.33
76299;DHT22;65236;42.332;23.550;2022-12-18T01:09:14;8.30;84.47
76299;DHT22;65236;42.332;23.550;2022-12-18T01:11:40;8.28;84.52
76299;DHT22;65236;42.332;23.550;2022-12-18T01:14:05;8.25;84.43
76299;DHT22;65236;42.332;23.550;2022-12-18T01:16:31;8.12;84.83
76299;DHT22;65236;42.332;23.550;2022-12-18T01:18:56;8.05;84.99
76299;DHT22;65236;42.332;23.550;2022-12-18T01:21:23;7.95;85.48
76299;DHT22;65236;42.332;23.550;2022-12-18T01:23:53;7.89;86.05
76299;DHT22;65236;42.332;23.550;2022-12-18T01:26:19;7.82;86.32
76299;DHT22;65236;42.332;23.550;2022-12-18T01:28:44;7.79;86.35
76299;DHT22;65236;42.332;23.550;2022-12-18T01:33:35;7.74;86.63
76299;DHT22;65236;42.332;23.550;2022-12-18T01:36:00;7.76;86.68
76299;DHT22;65236;42.332;23.550;2022-12-18T01:38:28;7.80;86.49
76299;DHT22;65236;42.332;23.550;2022-12-18T01:40:58;7.86;86.39
76299;DHT22;65236;42.332;23.550;2022-12-18T01:43:58;7.90;86.22
76299;DHT22;65236;42.332;23.550;2022-12-18T01:46:25;8.01;86.08
76299;DHT22;65236;42.332;23.550;2022-12-18T01:48:55;8.05;86.00
76299;DHT22;65236;42.332;23.550;2022-12-18T01:51:22;8.14;86.16
76299;DHT22;65236;42.332;23.550;2022-12-18T01:53:48;8.18;86.16
76299;DHT22;65236;42.332;23.550;2022-12-18T01:56:16;8.25;86.08
76299;DHT22;65236;42.332;23.550;2022-12-18T01:58:58;8.37;85.78
76299;DHT22;65236;42.332;23.550;2022-12-18T02:01:25;8.30;85.57
76299;DHT22;65236;42.332;23.550;2022-12-18T02:03:51;8.35;85.79
76299;DHT22;65236;42.332;23.550;2022-12-18T02:09:13;8.44;85.94
76299;DHT22;65236;42.332;23.550;2022-12-18T02:11:55;8.49;85.90
76299;DHT22;65236;42.332;23.550;2022-12-18T02:17:16;8.48;86.07
76299;DHT22;65236;42.332;23.550;2022-12-18T02:27:57;8.55;85.65
76299;DHT22;65236;42.332;23.550;2022-12-18T02:30:24;8.52;85.51
76299;DHT22;65236;42.332;23.550;2022-12-18T02:32:52;8.52;85.20
76299;DHT22;65236;42.332;23.550;2022-12-18T02:35:23;8.51;85.00
76299;DHT22;65236;42.332;23.550;2022-12-18T02:37:50;8.46;84.80
76299;DHT22;65236;42.332;23.550;2022-12-18T02:40:17;8.45;84.62
76299;DHT22;65236;42.332;23.550;2022-12-18T02:42:43;8.51;84.32
76299;DHT22;65236;42.332;23.550;2022-12-18T02:45:09;8.44;84.31
76299;DHT22;65236;42.332;23.550;2022-12-18T02:47:38;8.37;83.97
76299;DHT22;65236;42.332;23.550;2022-12-18T02:52:52;8.25;84.28
76299;DHT22;65236;42.332;23.550;2022-12-18T02:57:50;8.20;84.50
76299;DHT22;65236;42.332;23.550;2022-12-18T03:00:24;8.18;84.02
76299;DHT22;65236;42.332;23.550;2022-12-18T03:03:09;8.07;83.97
76299;DHT22;65236;42.332;23.550;2022-12-18T03:05:49;7.98;83.86
76299;DHT22;65236;42.332;23.550;2022-12-18T03:08:21;7.91;83.45
76299;DHT22;65236;42.332;23.550;2022-12-18T03:10:53;7.82;83.48
76299;DHT22;65236;42.332;23.550;2022-12-18T03:13:26;7.79;83.54
76299;DHT22;65236;42.332;23.550;2022-12-18T03:15:55;7.76;83.51
76299;DHT22;65236;42.332;23.550;2022-12-18T03:18:25;7.69;83.11
76299;DHT22;65236;42.332;23.550;2022-12-18T03:20:52;7.63;82.83
76299;DHT22;65236;42.332;23.550;2022-12-18T03:23:25;7.62;83.12
76299;DHT22;65236;42.332;23.550;2022-12-18T03:25:54;7.53;83.32
76299;DHT22;65236;42.332;23.550;2022-12-18T03:28:22;7.42;83.15
76299;DHT22;65236;42.332;23.550;2022-12-18T03:30:55;7.42;83.02
76299;DHT22;65236;42.332;23.550;2022-12-18T03:33:35;7.39;82.70
76299;DHT22;65236;42.332;23.550;2022-12-18T03:36:03;7.36;82.32
76299;DHT22;65236;42.332;23.550;2022-12-18T03:38:29;7.36;81.87
76299;DHT22;65236;42.332;23.550;2022-12-18T03:43:52;7.24;82.26
76299;DHT22;65236;42.332;23.550;2022-12-18T03:46:26;7.22;82.14
76299;DHT22;65236;42.332;23.550;2022-12-18T03:48:59;7.14;82.23
76299;DHT22;65236;42.332;23.550;2022-12-18T03:51:39;7.08;81.79
76299;DHT22;65236;42.332;23.550;2022-12-18T03:54:07;7.01;81.91
76299;DHT22;65236;42.332;23.550;2022-12-18T03:56:38;6.91;81.89
76299;DHT22;65236;42.332;23.550;2022-12-18T03:59:06;6.88;82.01
76299;DHT22;65236;42.332;23.550;2022-12-18T04:01:35;6.88;82.08
76299;DHT22;65236;42.332;23.550;2022-12-18T04:04:03;6.94;82.02
76299;DHT22;65236;42.332;23.550;2022-12-18T04:06:30;6.87;82.20
76299;DHT22;65236;42.332;23.550;2022-12-18T04:08:57;6.84;82.25
76299;DHT22;65236;42.332;23.550;2022-12-18T04:11:23;6.83;82.10
76299;DHT22;65236;42.332;23.550;2022-12-18T04:13:48;6.83;82.13
76299;DHT22;65236;42.332;23.550;2022-12-18T04:16:13;6.79;81.92
76299;DHT22;65236;42.332;23.550;2022-12-18T04:18:39;6.81;81.57
76299;DHT22;65236;42.332;23.550;2022-12-18T04:21:07;6.72;81.56
76299;DHT22;65236;42.332;23.550;2022-12-18T04:23:32;6.65;81.84
76299;DHT22;65236;42.332;23.550;2022-12-18T04:25:58;6.69;81.56
76299;DHT22;65236;42.332;23.550;2022-12-18T04:28:23;6.68;81.68
76299;DHT22;65236;42.332;23.550;2022-12-18T04:30:49;6.70;81.80
76299;DHT22;65236;42.332;23.550;2022-12-18T04:33:14;6.69;81.86
76299;DHT22;65236;42.332;23.550;2022-12-18T04:35:41;6.73;81.80
76299;DHT22;65236;42.332;23.550;2022-12-18T04:38:07;6.77;81.41
76299;DHT22;65236;42.332;23.550;2022-12-18T04:40:36;6.77;81.21
76299;DHT22;65236;42.332;23.550;2022-12-18T04:43:03;6.76;81.16
76299;DHT22;65236;42.332;23.550;2022-12-18T04:45:30;6.73;81.01
76299;DHT22;65236;42.332;23.550;2022-12-18T04:48:00;6.69;81.32
76299;DHT22;65236;42.332;23.550;2022-12-18T04:50:26;6.68;81.44
76299;DHT22;65236;42.332;23.550;2022-12-18T04:52:51;6.69;81.44
76299;DHT22;65236;42.332;23.550;2022-12-18T04:55:17;6.66;81.28
76299;DHT22;65236;42.332;23.550;2022-12-18T04:57:42;6.59;81.35
76299;DHT22;65236;42.332;23.550;2022-12-18T05:00:08;6.54;81.61
76299;DHT22;65236;42.332;23.550;2022-12-18T05:02:34;6.54;81.53
76299;DHT22;65236;42.332;23.550;2022-12-18T05:05:00;6.59;81.79
76299;DHT22;65236;42.332;23.550;2022-12-18T05:07:25;6.59;81.20
76299;DHT22;65236;42.332;23.550;2022-12-18T05:09:50;6.59;81.17
76299;DHT22;65236;42.332;23.550;2022-12-18T05:12:16;6.49;81.42
76299;DHT22;65236;42.332;23.550;2022-12-18T05:14:41;6.49;81.58
76299;DHT22;65236;42.332;23.550;2022-12-18T05:17:07;6.50;81.53
76299;DHT22;65236;42.332;23.550;2022-12-18T05:19:32;6.50;81.67
76299;DHT22;65236;42.332;23.550;2022-12-18T05:21:58;6.45;82.00
76299;DHT22;65236;42.332;23.550;2022-12-18T05:24:23;6.42;81.80
76299;DHT22;65236;42.332;23.550;2022-12-18T05:26:49;6.41;81.62
76299;DHT22;65236;42.332;23.550;2022-12-18T05:29:14;6.29;81.94
76299;DHT22;65236;42.332;23.550;2022-12-18T05:31:40;6.22;82.48
76299;DHT22;65236;42.332;23.550;2022-12-18T05:34:05;6.22;82.87
76299;DHT22;65236;42.332;23.550;2022-12-18T05:36:31;6.25;82.96
76299;DHT22;65236;42.332;23.550;2022-12-18T05:38:57;6.25;82.28
76299;DHT22;65236;42.332;23.550;2022-12-18T05:41:22;6.28;81.95
76299;DHT22;65236;42.332;23.550;2022-12-18T05:43:48;6.33;81.32
76299;DHT22;65236;42.332;23.550;2022-12-18T05:46:15;6.36;81.15
76299;DHT22;65236;42.332;23.550;2022-12-18T05:48:43;6.39;80.93
76299;DHT22;65236;42.332;23.550;2022-12-18T05:51:14;6.43;80.73
76299;DHT22;65236;42.332;23.550;2022-12-18T05:53:41;6.42;80.92
76299;DHT22;65236;42.332;23.550;2022-12-18T05:56:09;6.39;80.81
76299;DHT22;65236;42.332;23.550;2022-12-18T05:58:36;6.35;81.14
76299;DHT22;65236;42.332;23.550;2022-12-18T06:01:14;6.35;81.24
76299;DHT22;65236;42.332;23.550;2022-12-18T06:03:40;6.31;81.45
76299;DHT22;65236;42.332;23.550;2022-12-18T06:06:13;6.29;81.21
76299;DHT22;65236;42.332;23.550;2022-12-18T06:08:39;6.25;81.35
76299;DHT22;65236;42.332;23.550;2022-12-18T06:11:05;6.26;81.32
76299;DHT22;65236;42.332;23.550;2022-12-18T06:13:30;6.32;81.04
76299;DHT22;65236;42.332;23.550;2022-12-18T06:15:55;6.35;80.81
76299;DHT22;65236;42.332;23.550;2022-12-18T06:18:21;6.35;80.66
76299;DHT22;65236;42.332;23.550;2022-12-18T06:20:57;6.35;80.83
76299;DHT22;65236;42.332;23.550;2022-12-18T06:23:23;6.36;80.84
76299;DHT22;65236;42.332;23.550;2022-12-18T06:25:48;6.41;80.75
76299;DHT22;65236;42.332;23.550;2022-12-18T06:28:13;6.43;80.80
76299;DHT22;65236;42.332;23.550;2022-12-18T06:30:39;6.46;80.68
76299;DHT22;65236;42.332;23.550;2022-12-18T06:33:04;6.49;80.50
76299;DHT22;65236;42.332;23.550;2022-12-18T06:35:31;6.52;80.14
76299;DHT22;65236;42.332;23.550;2022-12-18T06:37:57;6.54;79.76
76299;DHT22;65236;42.332;23.550;2022-12-18T06:40:22;6.56;79.72
76299;DHT22;65236;42.332;23.550;2022-12-18T06:42:48;6.53;79.60
76299;DHT22;65236;42.332;23.550;2022-12-18T06:45:13;6.46;79.81
76299;DHT22;65236;42.332;23.550;2022-12-18T06:47:38;6.46;79.96
76299;DHT22;65236;42.332;23.550;2022-12-18T06:50:04;6.49;80.09
76299;DHT22;65236;42.332;23.550;2022-12-18T06:52:32;6.53;80.19
76299;DHT22;65236;42.332;23.550;2022-12-18T06:54:57;6.57;79.99
76299;DHT22;65236;42.332;23.550;2022-12-18T06:57:22;6.52;79.86
76299;DHT22;65236;42.332;23.550;2022-12-18T06:59:48;6.53;79.92
76299;DHT22;65236;42.332;23.550;2022-12-18T07:02:13;6.54;79.95
76299;DHT22;65236;42.332;23.550;2022-12-18T07:04:39;6.59;79.85
76299;DHT22;65236;42.332;23.550;2022-12-18T07:07:04;6.65;80.03
76299;DHT22;65236;42.332;23.550;2022-12-18T07:09:30;6.70;80.03
76299;DHT22;65236;42.332;23.550;2022-12-18T07:11:55;6.68;79.76
76299;DHT22;65236;42.332;23.550;2022-12-18T07:14:21;6.76;79.80
76299;DHT22;65236;42.332;23.550;2022-12-18T07:16:47;6.77;79.70
76299;DHT22;65236;42.332;23.550;2022-12-18T07:19:13;6.79;79.62
76299;DHT22;65236;42.332;23.550;2022-12-18T07:21:38;6.79;79.99
76299;DHT22;65236;42.332;23.550;2022-12-18T07:24:04;6.79;80.19
76299;DHT22;65236;42.332;23.550;2022-12-18T07:26:29;6.77;80.25
76299;DHT22;65236;42.332;23.550;2022-12-18T07:28:57;6.81;80.45
76299;DHT22;65236;42.332;23.550;2022-12-18T07:31:23;6.84;79.96
76299;DHT22;65236;42.332;23.550;2022-12-18T07:33:50;6.80;80.42
76299;DHT22;65236;42.332;23.550;2022-12-18T07:36:16;6.80;79.96
76299;DHT22;65236;42.332;23.550;2022-12-18T07:38:42;6.72;80.53
76299;DHT22;65236;42.332;23.550;2022-12-18T07:41:10;6.60;80.96
76299;DHT22;65236;42.332;23.550;2022-12-18T07:43:36;6.49;80.86
76299;DHT22;65236;42.332;23.550;2022-12-18T07:46:02;6.45;80.55
76299;DHT22;65236;42.332;23.550;2022-12-18T07:48:28;6.41;80.64
76299;DHT22;65236;42.332;23.550;2022-12-18T07:51:01;6.42;79.87
76299;DHT22;65236;42.332;23.550;2022-12-18T07:53:27;6.25;79.69
76299;DHT22;65236;42.332;23.550;2022-12-18T07:55:57;6.10;80.25
76299;DHT22;65236;42.332;23.550;2022-12-18T07:58:22;6.14;80.65
76299;DHT22;65236;42.332;23.550;2022-12-18T08:00:48;6.17;80.20
76299;DHT22;65236;42.332;23.550;2022-12-18T08:03:13;6.21;80.27
76299;DHT22;65236;42.332;23.550;2022-12-18T08:05:39;6.29;80.02
76299;DHT22;65236;42.332;23.550;2022-12-18T08:08:04;6.35;79.71
76299;DHT22;65236;42.332;23.550;2022-12-18T08:10:30;6.54;79.61
76299;DHT22;65236;42.332;23.550;2022-12-18T08:12:55;6.68;78.83
76299;DHT22;65236;42.332;23.550;2022-12-18T08:15:20;6.84;78.15
76299;DHT22;65236;42.332;23.550;2022-12-18T08:17:46;6.94;77.59
76299;DHT22;65236;42.332;23.550;2022-12-18T08:20:11;7.04;77.53
76299;DHT22;65236;42.332;23.550;2022-12-18T08:22:39;7.07;77.20
76299;DHT22;65236;42.332;23.550;2022-12-18T08:25:05;7.14;76.50
76299;DHT22;65236;42.332;23.550;2022-12-18T08:27:30;7.21;75.89
76299;DHT22;65236;42.332;23.550;2022-12-18T08:29:57;7.36;76.51
76299;DHT22;65236;42.332;23.550;2022-12-18T08:32:23;7.35;76.44
76299;DHT22;65236;42.332;23.550;2022-12-18T08:34:48;7.38;76.49
76299;DHT22;65236;42.332;23.550;2022-12-18T08:37:14;7.46;76.43
76299;DHT22;65236;42.332;23.550;2022-12-18T08:39:39;7.48;76.65
76299;DHT22;65236;42.332;23.550;2022-12-18T08:42:05;7.53;76.77
76299;DHT22;65236;42.332;23.550;2022-12-18T08:44:48;7.61;76.56
76299;DHT22;65236;42.332;23.550;2022-12-18T08:47:14;7.61;75.56
76299;DHT22;65236;42.332;23.550;2022-12-18T08:49:39;7.69;75.81
76299;DHT22;65236;42.332;23.550;2022-12-18T08:52:05;7.77;75.25
76299;DHT22;65236;42.332;23.550;2022-12-18T08:54:31;7.91;74.24
76299;DHT22;65236;42.332;23.550;2022-12-18T08:56:56;7.95;73.86
76299;DHT22;65236;42.332;23.550;2022-12-18T08:59:21;7.90;74.11
76299;DHT22;65236;42.332;23.550;2022-12-18T09:01:48;8.00;74.23
76299;DHT22;65236;42.332;23.550;2022-12-18T09:04:13;8.04;73.90
76299;DHT22;65236;42.332;23.550;2022-12-18T09:06:39;8.17;73.85
76299;DHT22;65236;42.332;23.550;2022-12-18T09:09:05;8.25;73.61
76299;DHT22;65236;42.332;23.550;2022-12-18T09:11:31;8.35;73.28
76299;DHT22;65236;42.332;23.550;2022-12-18T09:13:58;8.42;73.22
76299;DHT22;65236;42.332;23.550;2022-12-18T09:16:25;8.52;73.39
76299;DHT22;65236;42.332;23.550;2022-12-18T09:18:50;8.63;72.49
76299;DHT22;65236;42.332;23.550;2022-12-18T09:21:18;8.75;71.97
76299;DHT22;65236;42.332;23.550;2022-12-18T09:23:49;8.77;72.17
76299;DHT22;65236;42.332;23.550;2022-12-18T09:26:14;8.72;71.12
76299;DHT22;65236;42.332;23.550;2022-12-18T09:28:40;8.73;71.50
76299;DHT22;65236;42.332;23.550;2022-12-18T09:31:07;8.66;71.66
76299;DHT22;65236;42.332;23.550;2022-12-18T09:33:35;8.68;72.51
76299;DHT22;65236;42.332;23.550;2022-12-18T09:36:06;8.70;72.40
76299;DHT22;65236;42.332;23.550;2022-12-18T09:38:33;8.66;71.89
76299;DHT22;65236;42.332;23.550;2022-12-18T09:43:49;8.69;72.24
76299;DHT22;65236;42.332;23.550;2022-12-18T09:46:20;8.65;71.74
76299;DHT22;65236;42.332;23.550;2022-12-18T09:48:51;8.69;71.56
76299;DHT22;65236;42.332;23.550;2022-12-18T09:51:20;8.69;71.92
76299;DHT22;65236;42.332;23.550;2022-12-18T09:53:53;8.65;71.85
76299;DHT22;65236;42.332;23.550;2022-12-18T09:56:22;8.72;72.22
76299;DHT22;65236;42.332;23.550;2022-12-18T09:58:58;8.77;71.66
76299;DHT22;65236;42.332;23.550;2022-12-18T10:01:24;8.81;71.12
76299;DHT22;65236;42.332;23.550;2022-12-18T10:03:50;8.77;71.36
76299;DHT22;65236;42.332;23.550;2022-12-18T10:06:32;8.76;71.72
76299;DHT22;65236;42.332;23.550;2022-12-18T10:09:08;8.72;72.00
76299;DHT22;65236;42.332;23.550;2022-12-18T10:27:29;8.87;71.55
76299;DHT22;65236;42.332;23.550;2022-12-18T10:29:55;8.84;71.60
76299;DHT22;65236;42.332;23.550;2022-12-18T10:32:27;8.90;71.48
76299;DHT22;65236;42.332;23.550;2022-12-18T10:34:55;8.89;71.64
76299;DHT22;65236;42.332;23.550;2022-12-18T10:37:23;8.84;71.95
76299;DHT22;65236;42.332;23.550;2022-12-18T10:40:14;8.87;71.37
76299;DHT22;65236;42.332;23.550;2022-12-18T10:42:40;8.80;71.25
76299;DHT22;65236;42.332;23.550;2022-12-18T10:45:14;8.77;71.47
76299;DHT22;65236;42.332;23.550;2022-12-18T10:47:58;8.66;71.54
76299;DHT22;65236;42.332;23.550;2022-12-18T10:50:35;8.56;72.09
76299;DHT22;65236;42.332;23.550;2022-12-18T10:53:03;8.44;72.50
76299;DHT22;65236;42.332;23.550;2022-12-18T10:55:39;8.28;72.66
76299;DHT22;65236;42.332;23.550;2022-12-18T10:58:28;8.15;73.32
76299;DHT22;65236;42.332;23.550;2022-12-18T11:06:07;8.14;73.72
76299;DHT22;65236;42.332;23.550;2022-12-18T11:08:33;8.07;72.77
76299;DHT22;65236;42.332;23.550;2022-12-18T11:10:59;8.10;72.52
76299;DHT22;65236;42.332;23.550;2022-12-18T11:13:26;8.08;72.28
76299;DHT22;65236;42.332;23.550;2022-12-18T11:15:52;8.15;72.23
76299;DHT22;65236;42.332;23.550;2022-12-18T11:18:29;8.14;72.32
76299;DHT22;65236;42.332;23.550;2022-12-18T11:21:06;8.01;71.97
76299;DHT22;65236;42.332;23.550;2022-12-18T11:23:33;7.91;72.80
76299;DHT22;65236;42.332;23.550;2022-12-18T11:26:01;7.83;72.74
76299;DHT22;65236;42.332;23.550;2022-12-18T11:28:40;7.79;73.17
76299;DHT22;65236;42.332;23.550;2022-12-18T11:31:28;7.79;73.22
76299;DHT22;65236;42.332;23.550;2022-12-18T11:34:03;7.83;73.15
76299;DHT22;65236;42.332;23.550;2022-12-18T11:36:38;7.74;73.01
76299;DHT22;65236;42.332;23.550;2022-12-18T11:39:36;7.69;73.46
76299;DHT22;65236;42.332;23.550;2022-12-18T11:50:14;7.62;73.00
76299;DHT22;65236;42.332;23.550;2022-12-18T11:52:41;7.55;73.21
76299;DHT22;65236;42.332;23.550;2022-12-18T12:00:23;7.55;74.17
76299;DHT22;65236;42.332;23.550;2022-12-18T12:06:34;7.69;73.59
76299;DHT22;65236;42.332;23.550;2022-12-18T12:27:51;6.90;73.19
76299;DHT22;65236;42.332;23.550;2022-12-18T12:30:22;6.90;73.48
76299;DHT22;65236;42.332;23.550;2022-12-18T12:35:50;6.77;74.05
76299;DHT22;65236;42.332;23.550;2022-12-18T12:38:37;6.87;74.07
76299;DHT22;65236;42.332;23.550;2022-12-18T12:41:09;6.94;73.78
76299;DHT22;65236;42.332;23.550;2022-12-18T12:44:01;6.97;73.77
76299;DHT22;65236;42.332;23.550;2022-12-18T12:46:31;7.00;73.21
76299;DHT22;65236;42.332;23.550;2022-12-18T12:49:18;6.96;73.55
76299;DHT22;65236;42.332;23.550;2022-12-18T12:52:07;6.91;73.40
76299;DHT22;65236;42.332;23.550;2022-12-18T12:54:36;6.86;73.60
76299;DHT22;65236;42.332;23.550;2022-12-18T12:57:12;6.91;73.51
76299;DHT22;65236;42.332;23.550;2022-12-18T13:02:22;6.97;74.01
76299;DHT22;65236;42.332;23.550;2022-12-18T13:05:14;6.96;74.06
76299;DHT22;65236;42.332;23.550;2022-12-18T13:08:05;6.90;73.79
76299;DHT22;65236;42.332;23.550;2022-12-18T13:10:39;6.87;74.13
76299;DHT22;65236;42.332;23.550;2022-12-18T13:13:13;6.81;74.58
76299;DHT22;65236;42.332;23.550;2022-12-18T13:16:06;6.86;74.89
76299;DHT22;65236;42.332;23.550;2022-12-18T13:18:33;6.83;75.09
76299;DHT22;65236;42.332;23.550;2022-12-18T13:25:54;6.88;74.61
76299;DHT22;65236;42.332;23.550;2022-12-18T13:31:12;6.87;74.51
76299;DHT22;65236;42.332;23.550;2022-12-18T13:33:45;6.80;74.62
76299;DHT22;65236;42.332;23.550;2022-12-18T13:38:40;6.75;74.53
76299;DHT22;65236;42.332;23.550;2022-12-18T13:43:47;6.60;74.50
76299;DHT22;65236;42.332;23.550;2022-12-18T13:46:29;6.59;74.44
76299;DHT22;65236;42.332;23.550;2022-12-18T13:49:02;6.54;74.56
76299;DHT22;65236;42.332;23.550;2022-12-18T13:51:29;6.50;74.80
76299;DHT22;65236;42.332;23.550;2022-12-18T13:54:00;6.48;75.00
76299;DHT22;65236;42.332;23.550;2022-12-18T13:56:31;6.49;74.81
76299;DHT22;65236;42.332;23.550;2022-12-18T14:01:55;6.36;75.26
76299;DHT22;65236;42.332;23.550;2022-12-18T14:04:23;6.33;75.43
76299;DHT22;65236;42.332;23.550;2022-12-18T14:06:55;6.32;75.75
76299;DHT22;65236;42.332;23.550;2022-12-18T14:09:26;6.32;75.83
76299;DHT22;65236;42.332;23.550;2022-12-18T14:11:52;6.35;75.75
76299;DHT22;65236;42.332;23.550;2022-12-18T14:14:41;6.22;76.27
76299;DHT22;65236;42.332;23.550;2022-12-18T14:17:11;6.17;76.55
76299;DHT22;65236;42.332;23.550;2022-12-18T14:19:37;6.10;76.81
76299;DHT22;65236;42.332;23.550;2022-12-18T14:22:15;6.05;77.01
76299;DHT22;65236;42.332;23.550;2022-12-18T14:24:41;5.98;77.07
76299;DHT22;65236;42.332;23.550;2022-12-18T14:27:36;6.00;77.53
76299;DHT22;65236;42.332;23.550;2022-12-18T14:30:39;6.03;77.65
76299;DHT22;65236;42.332;23.550;2022-12-18T14:33:26;6.10;78.25
76299;DHT22;65236;42.332;23.550;2022-12-18T14:35:53;6.10;77.50
76299;DHT22;65236;42.332;23.550;2022-12-18T14:38:23;6.10;77.73
76299;DHT22;65236;42.332;23.550;2022-12-18T14:43:21;6.08;78.00
76299;DHT22;65236;42.332;23.550;2022-12-18T14:45:47;6.05;77.98
76299;DHT22;65236;42.332;23.550;2022-12-18T14:48:20;6.11;77.42
76299;DHT22;65236;42.332;23.550;2022-12-18T14:50:58;6.10;77.54
76299;DHT22;65236;42.332;23.550;2022-12-18T14:56:02;6.10;77.13
76299;DHT22;65236;42.332;23.550;2022-12-18T14:58:28;6.08;77.07
76299;DHT22;65236;42.332;23.550;2022-12-18T15:00:54;6.10;77.31
76299;DHT22;65236;42.332;23.550;2022-12-18T15:03:21;6.10;77.04
76299;DHT22;65236;42.332;23.550;2022-12-18T15:05:47;6.08;76.89
76299;DHT22;65236;42.332;23.550;2022-12-18T15:08:34;6.10;76.67
76299;DHT22;65236;42.332;23.550;2022-12-18T15:11:00;6.10;76.74
76299;DHT22;65236;42.332;23.550;2022-12-18T15:13:26;6.12;76.76
76299;DHT22;65236;42.332;23.550;2022-12-18T15:15:57;6.08;76.49
76299;DHT22;65236;42.332;23.550;2022-12-18T15:18:30;6.07;76.69
76299;DHT22;65236;42.332;23.550;2022-12-18T15:20:59;6.07;76.77
76299;DHT22;65236;42.332;23.550;2022-12-18T15:23:35;6.03;76.99
76299;DHT22;65236;42.332;23.550;2022-12-18T15:26:08;6.07;76.93
76299;DHT22;65236;42.332;23.550;2022-12-18T15:28:54;6.08;76.80
76299;DHT22;65236;42.332;23.550;2022-12-18T15:31:31;6.07;76.67
76299;DHT22;65236;42.332;23.550;2022-12-18T15:36:24;6.04;76.71
76299;DHT22;65236;42.332;23.550;2022-12-18T15:38:50;6.00;76.58
76299;DHT22;65236;42.332;23.550;2022-12-18T15:41:18;5.91;76.95
76299;DHT22;65236;42.332;23.550;2022-12-18T15:43:44;5.91;77.20
76299;DHT22;65236;42.332;23.550;2022-12-18T15:46:11;5.91;77.37
76299;DHT22;65236;42.332;23.550;2022-12-18T15:48:44;5.90;77.34
76299;DHT22;65236;42.332;23.550;2022-12-18T15:53:56;5.90;77.11
76299;DHT22;65236;42.332;23.550;2022-12-18T15:56:22;5.87;76.82
76299;DHT22;65236;42.332;23.550;2022-12-18T15:59:15;5.86;76.84
76299;DHT22;65236;42.332;23.550;2022-12-18T16:01:42;5.84;76.88
76299;DHT22;65236;42.332;23.550;2022-12-18T16:04:12;5.89;76.86
76299;DHT22;65236;42.332;23.550;2022-12-18T16:06:38;5.86;76.72
76299;DHT22;65236;42.332;23.550;2022-12-18T16:09:04;5.89;76.94
76299;DHT22;65236;42.332;23.550;2022-12-18T16:11:31;5.89;76.71
76299;DHT22;65236;42.332;23.550;2022-12-18T16:14:26;5.91;76.47
76299;DHT22;65236;42.332;23.550;2022-12-18T16:17:01;5.86;76.79
76299;DHT22;65236;42.332;23.550;2022-12-18T16:19:27;5.84;76.92
76299;DHT22;65236;42.332;23.550;2022-12-18T16:21:54;5.83;76.86
76299;DHT22;65236;42.332;23.550;2022-12-18T16:24:22;5.80;76.47
76299;DHT22;65236;42.332;23.550;2022-12-18T16:26:49;5.78;76.32
76299;DHT22;65236;42.332;23.550;2022-12-18T16:29:17;5.77;76.25
76299;DHT22;65236;42.332;23.550;2022-12-18T16:31:42;5.78;75.92
76299;DHT22;65236;42.332;23.550;2022-12-18T16:34:21;5.74;76.15
76299;DHT22;65236;42.332;23.550;2022-12-18T16:36:51;5.70;75.86
76299;DHT22;65236;42.332;23.550;2022-12-18T16:39:17;5.70;76.03
76299;DHT22;65236;42.332;23.550;2022-12-18T16:41:42;5.70;76.11
76299;DHT22;65236;42.332;23.550;2022-12-18T16:44:08;5.69;75.88
76299;DHT22;65236;42.332;23.550;2022-12-18T16:46:34;5.67;75.40
76299;DHT22;65236;42.332;23.550;2022-12-18T16:49:00;5.62;75.06
76299;DHT22;65236;42.332;23.550;2022-12-18T16:51:26;5.64;74.96
76299;DHT22;65236;42.332;23.550;2022-12-18T16:53:53;5.62;74.86
76299;DHT22;65236;42.332;23.550;2022-12-18T16:56:19;5.62;75.17
76299;DHT22;65236;42.332;23.550;2022-12-18T16:58:53;5.56;75.18
76299;DHT22;65236;42.332;23.550;2022-12-18T17:01:19;5.50;74.97
76299;DHT22;65236;42.332;23.550;2022-12-18T17:03:50;5.40;74.87
76299;DHT22;65236;42.332;23.550;2022-12-18T17:06:16;5.36;75.05
76299;DHT22;65236;42.332;23.550;2022-12-18T17:08:41;5.35;75.06
76299;DHT22;65236;42.332;23.550;2022-12-18T17:11:07;5.29;75.44
76299;DHT22;65236;42.332;23.550;2022-12-18T17:13:33;5.21;75.43
76299;DHT22;65236;42.332;23.550;2022-12-18T17:16:03;5.21;75.77
76299;DHT22;65236;42.332;23.550;2022-12-18T17:18:29;5.18;75.55
76299;DHT22;65236;42.332;23.550;2022-12-18T17:21:01;5.14;74.98
76299;DHT22;65236;42.332;23.550;2022-12-18T17:23:29;5.17;75.32
76299;DHT22;65236;42.332;23.550;2022-12-18T17:25:59;5.15;74.99
76299;DHT22;65236;42.332;23.550;2022-12-18T17:28:26;5.14;75.14
76299;DHT22;65236;42.332;23.550;2022-12-18T17:30:53;5.12;75.34
76299;DHT22;65236;42.332;23.550;2022-12-18T17:33:19;5.12;75.03
76299;DHT22;65236;42.332;23.550;2022-12-18T17:35:44;5.17;75.21
76299;DHT22;65236;42.332;23.550;2022-12-18T17:38:09;5.19;74.82